Flight Track Log - Related Links

Times and Time Zones

All times are in EDT time to prevent confusion due to time zone crossing. See the UAL4678 flight status page for this flight to view local times or setup timezone preferences in your user account.

Time Position Orientation Groundspeed Altitude Reporting Facility
EDT Latitude Longitude Course Direction KTS MPH feet Rate Location/Type
Sun 05:42:38 PM 40.7333 -74.1167 351° North 195 224 2,300  Level New York TRACON
Sun 05:43:38 PM 40.7833 -74.1333 346° North 225 259 4,200 2,150 Climbing New York TRACON
Sun 05:44:00 PM 40.9583 -74.2352 350° North  Level FlightAware Approximate
Sun 05:44:38 PM 40.8167 -74.2167 298° West 251 289 6,600  Level New York TRACON
Sun 05:45:00 PM 41.0515 -74.2559 350° North  Level FlightAware Approximate
Sun 05:45:38 PM 40.8500 -74.3000 298° West 251 289 8,000  Level New York TRACON
Sun 05:46:00 PM 41.1440 -74.2813 346° North  Level FlightAware Approximate
Sun 05:46:38 PM 40.8667 -74.3833 285° West 251 289 8,100  Level New York TRACON
Sun 05:47:00 PM 41.2357 -74.3119 346° North  Level FlightAware Approximate
Sun 05:47:38 PM 40.8833 -74.4500 288° West 259 298 9,400  Level New York TRACON
Sun 05:48:00 PM 41.3292 -74.3258 351° North  Level FlightAware Approximate
Sun 05:48:38 PM 40.9667 -74.4667 351° North 265 305 11,500  Level New York TRACON
Sun 05:49:38 PM 41.0333 -74.4500 11° North 292 336 12,800 1,350 Climbing New York TRACON
Sun 05:50:38 PM 41.1167 -74.4167 17° North 321 369 14,200 1,450 Climbing New York TRACON
Sun 05:51:38 PM 41.2167 -74.4000 North 342 394 15,700 950 Climbing New York TRACON
Sun 05:52:38 PM 41.3167 -74.3833 North 360 414 16,100 159 Climbing New York TRACON
Sun 05:54:09 PM 41.4400 -74.4350 343° North 348 400 16,100 320 Level New York Center
Sun 05:55:08 PM 41.4883 -74.5511 299° West 331 381 16,900 1,160 Climbing New York Center
Sun 05:56:08 PM 41.5347 -74.6675 298° West 349 402 18,400 1,059 Climbing New York Center
Sun 05:57:07 PM 41.5700 -74.7914 291° West 360 414 19,000 295 Climbing New York Center
Sun 05:58:10 PM 41.6072 -74.9186 291° West 365 420 19,000 454 Level New York Center
Sun 05:59:06 PM 41.6408 -75.0317 292° West 365 420 19,900 1,169 Climbing New York Center
Sun 06:00:08 PM 41.6758 -75.1533 291° West 360 414 21,300 1,450 Climbing New York Center
Sun 06:01:06 PM 41.7108 -75.2750 291° West 355 409 22,800 1,650 Climbing New York Center
Sun 06:02:08 PM 41.7458 -75.3942 292° West 355 409 24,600 1,918 Climbing New York Center
Sun 06:03:08 PM 41.7769 -75.5047 291° West 344 396 26,700 2,100 Climbing New York Center
Sun 06:04:08 PM 41.8061 -75.6100 290° West 323 372 28,800 1,613 Climbing New York Center
Sun 06:05:07 PM 41.8353 -75.7094 292° West 299 344 29,900 1,068 Climbing New York Center
Sun 06:06:06 PM 41.8642 -75.8147 290° West 294 338 30,900 1,091 Climbing New York Center
Sun 06:07:08 PM 41.8989 -75.9286 292° West 301 346 32,100 1,082 Climbing New York Center
Sun 06:08:08 PM 41.9272 -76.0369 289° West 301 346 33,100 992 Climbing New York Center
Sun 06:09:09 PM 41.9558 -76.1422 290° West 301 346 34,100 966 Climbing New York Center
Sun 06:10:06 PM 41.9867 -76.2481 291° West 301 346 35,000 923 Climbing New York Center
Sun 06:11:06 PM 42.0172 -76.3511 292° West 301 346 35,900 492 Climbing New York Center
Sun 06:12:08 PM 42.0400 -76.4422 289° West 295 339 36,000 398 Climbing New York Center
Sun 06:13:52 PM 46.9667 -77.0667 355° North 510 587 37,000 366 Climbing Toronto Center
Sun 06:14:52 PM 46.8333 -76.9833 157° South 520 598 37,000  Level Toronto Center
Sun 06:15:52 PM 46.7167 -76.8667 146° Southeast 510 587 37,000  Level Toronto Center
Sun 06:16:52 PM 46.6000 -76.7667 149° Southeast 520 598 37,000  Level Toronto Center
Sun 06:17:52 PM 46.4667 -76.6500 149° Southeast 520 598 37,000  Level Toronto Center
Sun 06:18:52 PM 46.3333 -76.5667 157° South 510 587 37,000  Level Toronto Center
Sun 06:19:52 PM 46.2167 -76.4500 145° Southeast 510 587 37,000  Level Toronto Center
Sun 06:20:52 PM 46.0833 -76.3333 149° Southeast 520 598 37,000  Level Toronto Center
Sun 06:21:52 PM 45.9667 -76.2500 154° Southeast 520 598 37,000  Level Toronto Center
Sun 06:22:52 PM 45.8500 -76.1333 145° Southeast 510 587 37,000  Level Toronto Center
Sun 06:23:52 PM 45.7333 -76.0500 153° Southeast 510 587 37,000  Level Toronto Center
Sun 06:24:52 PM 45.5833 -75.9333 151° Southeast 510 587 37,000  Level Toronto Center
Sun 06:25:52 PM 45.4667 -75.8333 149° Southeast 510 587 37,000  Level Toronto Center
Sun 06:26:52 PM 45.3500 -75.7333 149° Southeast 520 598 37,000  Level Toronto Center
Sun 06:27:52 PM 45.2333 -75.6500 153° Southeast 510 587 37,000  Level Toronto Center
Sun 06:28:52 PM 45.0833 -75.5500 155° Southeast 510 587 37,000  Level Toronto Center
Sun 06:29:52 PM 44.9667 -75.4333 145° Southeast 520 598 37,000  Level Toronto Center
Sun 06:30:52 PM 44.8500 -75.3500 153° Southeast 520 598 37,000  Level Toronto Center
Sun 06:31:52 PM 44.7333 -75.2667 153° Southeast 510 587 37,000 -417 Level Toronto Center
Sun 06:33:16 PM 42.7603 -79.2006 237° Southwest 373 429 36,000 -417 Descending Cleveland Center
Sun 06:34:16 PM 42.7931 -79.3328 289° West 378 435 36,000  Level Cleveland Center
Sun 06:35:16 PM 42.8236 -79.4567 289° West 378 435 36,000  Level Cleveland Center
Sun 06:36:47 PM 42.8667 -79.6500 287° West 370 426 36,000  Level Toronto Center
Sun 06:37:47 PM 42.9000 -79.8000 287° West 360 414 36,000  Level Toronto Center
Sun 06:38:47 PM 42.9167 -79.9000 283° West 350 403 36,000  Level Toronto Center
Sun 06:39:47 PM 42.9500 -80.0167 291° West 350 403 36,000  Level Toronto Center
Sun 06:40:47 PM 42.9833 -80.1500 289° West 350 403 36,000  Level Toronto Center
Sun 06:41:47 PM 43.0167 -80.2667 291° West 350 403 36,000  Level Toronto Center
Sun 06:42:47 PM 43.0500 -80.4167 287° West 350 403 36,000  Level Toronto Center
Sun 06:43:47 PM 43.0833 -80.5500 289° West 350 403 36,000  Level Toronto Center
Sun 06:44:47 PM 43.1000 -80.6667 281° West 350 403 36,000  Level Toronto Center
Sun 06:45:47 PM 43.1333 -80.8000 289° West 350 403 36,000  Level Toronto Center
Sun 06:46:47 PM 43.1500 -80.9167 281° West 350 403 36,000  Level Toronto Center
Sun 06:47:47 PM 43.1833 -81.0500 289° West 350 403 36,000  Level Toronto Center
Sun 06:48:47 PM 43.2167 -81.1667 291° West 350 403 36,000  Level Toronto Center
Sun 06:49:47 PM 43.2333 -81.3000 280° West 350 403 36,000  Level Toronto Center
Sun 06:50:47 PM 43.2667 -81.4167 291° West 350 403 36,000  Level Toronto Center
Sun 06:51:47 PM 43.3000 -81.5500 289° West 350 403 36,000  Level Toronto Center
Sun 06:52:47 PM 43.3333 -81.6667 291° West 350 403 36,000  Level Toronto Center
Sun 06:53:47 PM 43.3667 -81.8167 287° West 350 403 36,000  Level Toronto Center
Sun 06:54:47 PM 43.3667 -81.9333 270° West 350 403 36,000  Level Toronto Center
Sun 06:55:47 PM 43.4000 -82.0667 289° West 350 403 36,000  Level Toronto Center
Sun 06:56:47 PM 43.4333 -82.2000 289° West 350 403 36,000  Level Toronto Center
Sun 06:57:47 PM 43.4667 -82.3167 292° West 350 403 36,000  Level Toronto Center
Sun 06:58:47 PM 43.5000 -82.4667 287° West 340 391 36,000  Level Toronto Center
Sun 06:59:47 PM 43.5167 -82.5833 281° West 340 391 36,000  Level Toronto Center
Sun 07:00:47 PM 43.5333 -82.7000 281° West 340 391 36,000  Level Toronto Center
Sun 07:01:47 PM 43.5667 -82.8333 289° West 340 391 36,000  Level Toronto Center
Sun 07:02:47 PM 43.6000 -82.9500 292° West 350 403 36,000  Level Toronto Center
Sun 07:03:47 PM 43.6336 -83.0833 289° West 352 405 36,000  Level Minneapolis Center
Sun 07:04:49 PM 43.6542 -83.1856 286° West 349 402 36,000  Level Minneapolis Center
Sun 07:05:51 PM 43.6867 -83.3425 286° West 354 407 36,000  Level Minneapolis Center
Sun 07:06:53 PM 43.7125 -83.4717 286° West 353 406 36,000  Level Minneapolis Center
Sun 07:07:55 PM 43.7375 -83.6019 285° West 353 406 36,000  Level Minneapolis Center
Sun 07:08:57 PM 43.7686 -83.7583 285° West 353 406 36,000  Level Minneapolis Center
Sun 07:09:59 PM 43.7956 -83.8889 286° West 354 407 36,000  Level Minneapolis Center
Sun 07:11:01 PM 43.8217 -84.0206 285° West 356 410 36,000  Level Minneapolis Center
Sun 07:12:03 PM 43.8475 -84.1533 285° West 358 412 36,000  Level Minneapolis Center
Sun 07:13:06 PM 43.8728 -84.2844 285° West 357 411 36,000  Level Minneapolis Center
Sun 07:14:08 PM 43.9036 -84.4439 285° West 357 411 36,000  Level Minneapolis Center
Sun 07:15:10 PM 43.9297 -84.5764 285° West 358 412 36,000  Level Minneapolis Center
Sun 07:16:12 PM 43.9558 -84.7092 285° West 359 413 36,000  Level Minneapolis Center
Sun 07:17:14 PM 43.9806 -84.8433 284° West 360 414 36,000  Level Minneapolis Center
Sun 07:18:17 PM 44.0047 -84.9761 284° West 359 413 36,000  Level Minneapolis Center
Sun 07:19:19 PM 44.0356 -85.1350 285° West 358 412 36,000  Level Minneapolis Center
Sun 07:20:21 PM 44.0514 -85.2236 284° West 358 412 36,000  Level Minneapolis Center
Sun 07:21:23 PM 44.0861 -85.4117 284° West 359 413 36,000  Level Minneapolis Center
Sun 07:22:38 PM 44.1153 -85.5725 284° West 358 412 36,000  Level Minneapolis Center
Sun 07:23:40 PM 44.1361 -85.7100 282° West 361 415 36,000  Level Minneapolis Center
Sun 07:24:41 PM 44.1533 -85.8194 282° West 361 415 36,000  Level Minneapolis Center
Sun 07:25:43 PM 44.1756 -85.9569 283° West 362 417 36,000  Level Minneapolis Center
Sun 07:26:46 PM 44.2011 -86.1211 282° West 361 415 36,000  Level Minneapolis Center
Sun 07:27:48 PM 44.2261 -86.2861 282° West 361 415 36,000  Level Minneapolis Center
Sun 07:28:50 PM 44.2475 -86.4231 282° West 360 414 36,000  Level Minneapolis Center
Sun 07:29:52 PM 44.2675 -86.5606 282° West 362 417 36,000  Level Minneapolis Center
Sun 07:30:54 PM 44.2892 -86.6981 282° West 361 415 36,000  Level Minneapolis Center
Sun 07:31:56 PM 44.3097 -86.8353 282° West 361 415 36,000  Level Minneapolis Center
Sun 07:32:59 PM 44.3292 -86.9728 281° West 360 414 36,000  Level Minneapolis Center
Sun 07:34:01 PM 44.3539 -87.1383 282° West 361 415 36,000  Level Minneapolis Center
Sun 07:35:03 PM 44.3733 -87.2714 282° West 361 415 36,000  Level Minneapolis Center
Sun 07:36:05 PM 44.3933 -87.4103 281° West 363 418 36,000  Level Minneapolis Center
Sun 07:37:07 PM 44.4133 -87.5469 282° West 361 415 36,000  Level Minneapolis Center
Sun 07:38:09 PM 44.4356 -87.7069 281° West 361 415 36,000  Level Minneapolis Center
Sun 07:39:11 PM 44.4556 -87.8428 282° West 359 413 36,000  Level Minneapolis Center
Sun 07:40:13 PM 44.4742 -87.9808 281° West 360 414 36,000  Level Minneapolis Center
Sun 07:41:15 PM 44.4911 -88.1164 280° West 354 407 36,000  Level Minneapolis Center
Sun 07:42:17 PM 44.5117 -88.2553 282° West 361 415 36,000  Level Minneapolis Center
Sun 07:43:19 PM 44.5325 -88.4164 280° West 362 417 36,000  Level Minneapolis Center
Sun 07:44:21 PM 44.5517 -88.5539 281° West 361 415 36,000  Level Minneapolis Center
Sun 07:45:23 PM 44.5667 -88.6675 281° West 358 412 36,000  Level Minneapolis Center
Sun 07:46:25 PM 44.5867 -88.8256 280° West 355 409 36,000  Level Minneapolis Center
Sun 07:47:27 PM 44.6042 -88.9611 280° West 354 407 36,000  Level Minneapolis Center
Sun 07:48:30 PM 44.6236 -89.1183 280° West 352 405 36,000  Level Minneapolis Center
Sun 07:49:32 PM 44.6411 -89.2528 280° West 351 404 36,000  Level Minneapolis Center
Sun 07:50:34 PM 44.6578 -89.3867 280° West 350 403 36,000 -484 Level Minneapolis Center
Sun 07:51:36 PM 44.6736 -89.5236 279° West 354 407 35,000 -1,235 Descending Minneapolis Center
Sun 07:52:50 PM 44.6914 -89.6628 280° West 361 415 33,200 -882 Descending Minneapolis Center
Sun 07:53:52 PM 44.7133 -89.8508 279° West 366 421 33,000 -97 Descending Minneapolis Center
Sun 07:54:00 PM 44.7091 -89.8175 279° West  Level FlightAware Approximate
Sun 07:54:54 PM 44.7311 -89.9922 280° West 367 422 33,000  Level Minneapolis Center
Sun 07:56:08 PM 44.7472 -90.1347 279° West 368 423 33,000  Level Minneapolis Center
Sun 07:57:11 PM 44.7697 -90.3256 279° West 372 428 33,000  Level Minneapolis Center
Sun 07:58:13 PM 44.7864 -90.4689 279° West 374 430 33,000  Level Minneapolis Center
Sun 07:59:15 PM 44.8047 -90.6075 281° West 371 427 33,000 -703 Level Minneapolis Center
Sun 08:00:21 PM 44.8311 -90.7783 282° West 373 429 31,500 -1,688 Descending Minneapolis Center
Sun 08:01:23 PM 44.8525 -90.9236 282° West 380 437 29,400 -2,081 Descending Minneapolis Center
Sun 08:02:25 PM 44.8742 -91.0722 282° West 384 442 27,200 -2,081 Descending Minneapolis Center
Sun 08:03:27 PM 44.8975 -91.2264 282° West 396 456 25,100 -1,984 Descending Minneapolis Center
Sun 08:04:29 PM 44.9206 -91.3783 282° West 399 459 23,100 -1,935 Descending Minneapolis Center
Sun 08:05:31 PM 44.9414 -91.5236 282° West 388 447 21,100 -2,129 Descending Minneapolis Center
Sun 08:06:33 PM 44.9656 -91.6950 281° West 376 433 18,700 -2,081 Descending Minneapolis Center
Sun 08:07:35 PM 44.9869 -91.8372 282° West 371 427 16,800 -1,887 Descending Minneapolis Center
Sun 08:08:37 PM 45.0058 -91.9747 281° West 358 412 14,800 -1,935 Descending Minneapolis Center
Sun 08:09:39 PM 45.0247 -92.1100 281° West 353 406 12,800 -1,790 Descending Minneapolis Center
Sun 08:10:41 PM 45.0428 -92.2456 281° West 352 405 11,100 -871 Descending Minneapolis Center
Sun 08:11:43 PM 45.0347 -92.3789 265° West 344 396 11,000 -48 Descending Minneapolis Center
Sun 08:12:45 PM 45.0097 -92.5392 258° West 350 403 11,000  Level Minneapolis Center
Sun 08:13:47 PM 44.9889 -92.6714 257° West 348 400 11,000 -105 Level Minneapolis Center
Sun 08:15:36 PM 44.9500 -92.9167 257° West 331 381 10,700 -497 Descending Minneapolis TRACON
Sun 08:16:36 PM 44.9333 -93.0333 259° West 273 314 9,600 -941 Descending Minneapolis TRACON
Sun 08:17:18 PM 44.9272 -93.0586 251° West 271 312 9,100 -1,327 Descending Minneapolis Center
Sun 08:18:20 PM 44.9783 -93.1764 302° West 254 292 7,300 -1,694 Descending Minneapolis Center
Sun 08:19:22 PM 45.0156 -93.2575 303° West 249 287 5,600 -1,597 Descending Minneapolis Center
Sun 08:20:24 PM 45.0217 -93.3411 276° West 244 281 4,000 -1,161 Descending Minneapolis Center
Sun 08:21:26 PM 44.9633 -93.3508 187° South 212 244 3,200 -823 Descending Minneapolis Center
Sun 08:22:28 PM 44.9294 -93.3031 135° Southeast 173 199 2,300 -919 Descending Minneapolis Center
Sun 08:23:30 PM 44.9036 -93.2458 122° Southeast 146 168 1,300 -968 Descending Minneapolis Center

Login

Don't have an account? Register now (free) for customized features, flight alerts, and more!